Time;durP1;ratioP1;P1;durP2;ratioP2;P2;SDS_P1;SDS_P2;PMS_P1;PMS_P2;Temp;Humidity;BMP_temperature;BMP_pressure;BME280_temperature;BME280_humidity;BME280_pressure;Samples;Min_cycle;Max_cycle;Signal;HPM_P1;HPM_P2
2023/03/30 05:52:52;;;;;;;7.28;2.67;;;;;;;;;;10560783;28;20415;-82
2023/03/30 05:57:53;;;;;;;7.10;2.10;;;;;;;;;;10542172;28;20029;-82
2023/03/30 06:02:54;;;;;;;8.32;2.55;;;;;;;;;;10520316;22;20049;-80
2023/03/30 06:07:55;;;;;;;5.90;2.22;;;;;;;;;;10459010;28;20037;-80
2023/03/30 06:12:56;;;;;;;7.90;4.88;;;;;;;;;;10491728;28;20055;-80
2023/03/30 06:17:58;;;;;;;;;;;;;;;;;;10524501;28;20021;-81
2023/03/30 06:22:59;;;;;;;4.53;2.40;;;;;;;;;;10503618;28;19940;-80
2023/03/30 06:28:00;;;;;;;;;;;;;;;;;;10491734;28;20025;-80
2023/03/30 06:33:01;;;;;;;4.18;2.20;;;;;;;;;;10484107;28;19967;-81
2023/03/30 06:38:02;;;;;;;;;;;;;;;;;;10501806;28;20078;-81
2023/03/30 06:43:03;;;;;;;4.22;1.90;;;;;;;;;;10509437;28;19904;-79
2023/03/30 06:48:05;;;;;;;;;;;;;;;;;;10510153;28;20552;-80
2023/03/30 06:53:06;;;;;;;5.32;2.20;;;;;;;;;;10482487;28;20285;-80
2023/03/30 06:58:07;;;;;;;8.27;3.28;;;;;;;;;;10483393;28;20020;-81
2023/03/30 07:03:08;;;;;;;2.70;1.40;;;;;;;;;;10470989;28;20496;-82
2023/03/30 07:08:09;;;;;;;3.15;1.67;;;;;;;;;;10473997;28;20028;-81
2023/03/30 07:13:10;;;;;;;3.28;2.00;;;;;;;;;;10448884;28;20097;-80
2023/03/30 07:18:12;;;;;;;5.57;2.20;;;;;;;;;;10446888;28;20469;-80
2023/03/30 07:23:13;;;;;;;5.50;2.50;;;;;;;;;;10446670;28;20403;-80
2023/03/30 07:28:15;;;;;;;5.13;2.17;;;;;;;;;;10447022;28;20021;-80
2023/03/30 07:33:16;;;;;;;4.20;1.70;;;;;;;;;;10446902;28;20029;-80
2023/03/30 07:38:18;;;;;;;;;;;;;;;;;;10447006;28;20032;-80
2023/03/30 07:43:19;;;;;;;4.82;1.80;;;;;;;;;;10464098;28;19911;-79
2023/03/30 07:48:19;;;;;;;;;;;;;;;;;;10454991;28;20025;-79
2023/03/30 07:53:21;;;;;;;5.40;2.30;;;;;;;;;;10445654;28;19905;-79
2023/03/30 07:58:22;;;;;;;5.40;2.10;;;;;;;;;;10446993;28;20033;-79
2023/03/30 08:03:23;;;;;;;;;;;;;;;;;;10445255;28;20029;-79
2023/03/30 08:08:24;;;;;;;;;;;;;;;;;;10447076;28;19943;-79
2023/03/30 08:13:26;;;;;;;5.38;1.95;;;;;;;;;;10461989;28;19911;-79
2023/03/30 08:18:27;;;;;;;3.85;1.88;;;;;;;;;;10446505;28;20029;-79
2023/03/30 08:23:28;;;;;;;3.08;1.67;;;;;;;;;;10445050;28;20091;-80
2023/03/30 08:28:29;;;;;;;3.78;1.80;;;;;;;;;;10464314;28;20061;-80
2023/03/30 08:33:30;;;;;;;5.40;3.78;;;;;;;;;;10447713;28;20052;-79
2023/03/30 08:38:32;;;;;;;4.15;2.08;;;;;;;;;;10452140;28;20092;-81
2023/03/30 08:43:42;;;;;;;3.85;2.17;;;;;;;;;;10457809;28;20092;-80
2023/03/30 08:48:43;;;;;;;4.40;2.07;;;;;;;;;;10457044;28;20135;-77
2023/03/30 08:53:44;;;;;;;4.47;2.20;;;;;;;;;;10469958;28;20021;-80
2023/03/30 08:58:55;;;;;;;4.85;2.80;;;;;;;;;;10462751;28;20093;-78
2023/03/30 09:04:15;;;;;;;5.03;1.85;;;;;;;;;;10462181;28;20037;-80
2023/03/30 09:09:24;;;;;;;5.93;1.75;;;;;;;;;;10462952;28;20025;-79
2023/03/30 09:14:36;;;;;;;4.70;1.98;;;;;;;;;;10445143;28;20033;-79
2023/03/30 09:19:56;;;;;;;6.53;2.30;;;;;;;;;;10445881;28;20021;-78
2023/03/30 09:25:00;;;;;;;4.40;2.27;;;;;;;;;;10445781;28;20024;-81
2023/03/30 09:30:07;;;;;;;4.88;2.60;;;;;;;;;;10442348;28;20091;-79
2023/03/30 09:35:14;;;;;;;6.82;2.47;;;;;;;;;;10464007;28;20056;-79
2023/03/30 09:40:23;;;;;;;5.68;2.30;;;;;;;;;;10444368;28;20020;-80
2023/03/30 09:45:34;;;;;;;5.78;1.83;;;;;;;;;;10445499;28;20021;-81
2023/03/30 09:50:39;;;;;;;6.80;2.10;;;;;;;;;;10467117;28;20200;-80
2023/03/30 09:55:41;;;;;;;7.05;2.30;;;;;;;;;;10451543;28;20138;-79
2023/03/30 10:00:42;;;;;;;5.28;1.83;;;;;;;;;;10469527;28;20035;-79
2023/03/30 10:05:43;;;;;;;5.72;2.22;;;;;;;;;;10455897;28;20147;-78
2023/03/30 10:10:45;;;;;;;8.38;3.80;;;;;;;;;;10456918;28;20446;-79
2023/03/30 10:15:48;;;;;;;6.38;2.35;;;;;;;;;;10475414;28;20033;-78
2023/03/30 10:20:51;;;;;;;7.55;1.83;;;;;;;;;;10455015;28;20052;-79
2023/03/30 10:26:00;;;;;;;4.72;1.98;;;;;;;;;;10452227;28;20496;-78
2023/03/30 10:31:04;;;;;;;7.32;3.47;;;;;;;;;;10461930;28;20071;-79
2023/03/30 10:36:08;;;;;;;5.28;2.15;;;;;;;;;;10464692;28;20028;-81
2023/03/30 10:41:14;;;;;;;7.63;2.47;;;;;;;;;;10467174;28;20029;-80
2023/03/30 10:46:21;;;;;;;6.75;2.35;;;;;;;;;;10467718;28;20031;-80
2023/03/30 10:51:41;;;;;;;9.98;4.53;;;;;;;;;;10449198;28;20119;-80
2023/03/30 10:56:51;;;;;;;11.27;4.03;;;;;;;;;;10449474;28;20037;-80
2023/03/30 11:01:58;;;;;;;7.37;2.70;;;;;;;;;;10472658;28;20120;-80
2023/03/30 11:07:02;;;;;;;7.28;2.50;;;;;;;;;;10467414;28;20032;-80
2023/03/30 11:12:22;;;;;;;5.95;2.80;;;;;;;;;;10459084;28;20029;-80
2023/03/30 11:17:30;;;;;;;6.32;2.00;;;;;;;;;;10458725;28;20029;-80
2023/03/30 11:22:50;;;;;;;6.88;2.63;;;;;;;;;;10463539;28;20113;-80
2023/03/30 11:27:58;;;;;;;6.28;1.83;;;;;;;;;;10468657;28;20059;-81
2023/03/30 11:33:07;;;;;;;6.05;2.03;;;;;;;;;;10475069;28;20077;-80
2023/03/30 11:38:12;;;;;;;6.50;2.05;;;;;;;;;;10448953;28;20386;-80
2023/03/30 11:43:15;;;;;;;8.38;2.13;;;;;;;;;;10450328;28;20424;-80
2023/03/30 11:48:32;;;;;;;9.00;2.00;;;;;;;;;;10466351;28;20104;-80
2023/03/30 11:53:33;;;;;;;9.27;2.25;;;;;;;;;;10447374;28;20031;-80
2023/03/30 11:58:47;;;;;;;7.82;2.70;;;;;;;;;;10447894;28;20021;-80
2023/03/30 12:03:54;;;;;;;10.00;2.40;;;;;;;;;;10501555;22;20048;-83
2023/03/30 12:09:12;;;;;;;6.05;1.60;;;;;;;;;;10479656;28;20524;-82
2023/03/30 12:14:32;;;;;;;8.07;2.00;;;;;;;;;;10457451;28;20120;-83
2023/03/30 12:19:46;;;;;;;6.05;2.10;;;;;;;;;;10472681;28;20033;-83
2023/03/30 12:24:58;;;;;;;6.25;2.03;;;;;;;;;;10473676;28;20037;-84
2023/03/30 12:30:11;;;;;;;9.40;3.05;;;;;;;;;;10456584;28;20029;-84
2023/03/30 12:35:44;;;;;;;35.13;17.45;;;;;;;;;;10473666;28;20037;-84
2023/03/30 12:40:46;;;;;;;11.93;3.45;;;;;;;;;;10435342;28;20040;-84
2023/03/30 12:46:01;;;;;;;8.55;2.70;;;;;;;;;;10474318;28;20025;-85
2023/03/30 12:51:02;;;;;;;7.32;3.05;;;;;;;;;;10454287;28;20040;-82
2023/03/30 12:56:03;;;;;;;7.93;2.33;;;;;;;;;;10487069;28;20017;-80
2023/03/30 13:01:04;;;;;;;12.15;3.03;;;;;;;;;;10485602;28;20048;-82
2023/03/30 13:06:16;;;;;;;10.45;3.03;;;;;;;;;;10474672;28;20039;-81
2023/03/30 13:11:18;;;;;;;7.00;1.90;;;;;;;;;;10470617;28;20028;-81
2023/03/30 13:16:38;;;;;;;4.57;1.63;;;;;;;;;;10467314;28;20432;-81
2023/03/30 13:21:46;;;;;;;3.80;1.45;;;;;;;;;;10455186;28;20033;-81
2023/03/30 13:26:47;;;;;;;4.32;1.60;;;;;;;;;;10456025;28;20017;-82
2023/03/30 13:31:57;;;;;;;4.80;1.40;;;;;;;;;;10481963;28;20025;-82
2023/03/30 13:37:22;;;;;;;3.50;1.20;;;;;;;;;;10456351;28;20036;-85
2023/03/30 13:42:23;;;;;;;4.75;1.40;;;;;;;;;;10453825;28;20017;-83
2023/03/30 13:47:24;;;;;;;5.50;2.08;;;;;;;;;;10451547;28;20032;-82
2023/03/30 13:52:53;;;;;;;4.78;1.73;;;;;;;;;;10446461;28;20025;-83
2023/03/30 13:58:09;;;;;;;3.25;1.50;;;;;;;;;;10430188;28;20045;-83
2023/03/30 14:03:31;;;;;;;4.63;1.60;;;;;;;;;;10449930;28;20040;-83
2023/03/30 14:08:47;;;;;;;4.95;1.52;;;;;;;;;;10471521;28;20108;-83
2023/03/30 14:13:52;;;;;;;5.00;1.60;;;;;;;;;;10475695;28;20080;-83
2023/03/30 14:19:03;;;;;;;5.53;1.65;;;;;;;;;;10457867;28;20032;-83
2023/03/30 14:24:05;;;;;;;5.07;1.58;;;;;;;;;;10456293;28;20096;-84
2023/03/30 14:29:07;;;;;;;3.75;1.60;;;;;;;;;;10472768;28;20021;-83
2023/03/30 14:34:22;;;;;;;5.30;1.60;;;;;;;;;;10457220;28;20438;-83
2023/03/30 14:39:24;;;;;;;4.35;2.00;;;;;;;;;;10455289;28;20024;-83
2023/03/30 14:44:25;;;;;;;5.03;1.80;;;;;;;;;;10453911;28;20052;-83
2023/03/30 14:49:28;;;;;;;3.97;1.73;;;;;;;;;;10454313;28;20032;-82
2023/03/30 14:54:30;;;;;;;6.18;1.90;;;;;;;;;;10454762;28;20036;-83
2023/03/30 14:59:32;;;;;;;5.63;2.30;;;;;;;;;;10452744;28;20033;-82
2023/03/30 15:04:38;;;;;;;5.43;1.77;;;;;;;;;;10453417;28;20142;-81
2023/03/30 15:09:39;;;;;;;5.47;1.50;;;;;;;;;;10453753;28;20367;-84
2023/03/30 15:14:41;;;;;;;7.25;2.03;;;;;;;;;;10452674;28;20111;-84
2023/03/30 15:19:42;;;;;;;7.78;2.00;;;;;;;;;;10453935;28;20147;-84
2023/03/30 15:25:03;;;;;;;6.65;2.60;;;;;;;;;;10472242;28;20040;-84
2023/03/30 15:30:24;;;;;;;;;;;;;;;;;;10461368;28;20070;-83
2023/03/30 15:35:27;;;;;;;10.25;2.55;;;;;;;;;;10452142;28;19995;-83
2023/03/30 15:40:36;;;;;;;5.75;2.08;;;;;;;;;;10455247;28;20027;-82
2023/03/30 15:45:37;;;;;;;5.50;2.35;;;;;;;;;;10454599;28;20032;-82
2023/03/30 15:50:51;;;;;;;7.82;2.20;;;;;;;;;;10461764;28;20493;-82
2023/03/30 15:55:52;;;;;;;3.45;1.50;;;;;;;;;;10453978;28;20581;-82
2023/03/30 16:01:00;;;;;;;4.18;1.77;;;;;;;;;;10452952;28;20406;-81
2023/03/30 16:06:01;;;;;;;3.85;1.52;;;;;;;;;;10475310;28;20024;-82
2023/03/30 16:11:02;;;;;;;4.65;1.70;;;;;;;;;;10455270;28;20083;-82
2023/03/30 16:16:03;;;;;;;5.10;2.72;;;;;;;;;;10450310;28;20082;-81
2023/03/30 16:21:05;;;;;;;6.25;2.00;;;;;;;;;;10450942;28;20028;-82
2023/03/30 16:26:33;;;;;;;5.35;1.85;;;;;;;;;;10454549;28;20021;-85
2023/03/30 16:31:40;;;;;;;4.18;1.33;;;;;;;;;;10468393;28;20085;-84
2023/03/30 16:36:44;;;;;;;4.78;2.20;;;;;;;;;;10453370;28;20048;-85
2023/03/30 16:41:47;;;;;;;6.53;2.00;;;;;;;;;;10451447;28;20033;-85
2023/03/30 16:46:52;;;;;;;6.57;2.13;;;;;;;;;;10454941;28;20028;-85
2023/03/30 16:51:54;;;;;;;4.50;2.22;;;;;;;;;;10450820;28;20013;-84
2023/03/30 16:56:56;;;;;;;6.40;2.67;;;;;;;;;;10482830;28;20044;-84
2023/03/30 17:01:58;;;;;;;7.07;2.22;;;;;;;;;;10454960;28;20037;-84
2023/03/30 17:06:59;;;;;;;5.93;3.78;;;;;;;;;;10450008;28;20033;-84
2023/03/30 17:12:00;;;;;;;5.65;2.70;;;;;;;;;;10483983;28;20013;-85
2023/03/30 17:17:01;;;;;;;8.00;4.18;;;;;;;;;;10479611;28;20100;-84
2023/03/30 17:22:02;;;;;;;6.60;3.15;;;;;;;;;;10452734;28;20053;-85
2023/03/30 17:27:03;;;;;;;5.38;3.00;;;;;;;;;;10452651;28;20437;-85
2023/03/30 17:32:05;;;;;;;5.40;2.92;;;;;;;;;;10452641;28;20553;-85
2023/03/30 17:37:08;;;;;;;7.13;3.20;;;;;;;;;;10453425;28;20025;-85
2023/03/30 17:42:09;;;;;;;5.78;2.78;;;;;;;;;;10451601;28;20028;-85
2023/03/30 17:47:10;;;;;;;4.90;2.53;;;;;;;;;;10455014;28;20013;-85
2023/03/30 17:52:11;;;;;;;5.60;2.78;;;;;;;;;;10453915;28;20033;-85
2023/03/30 17:57:12;;;;;;;4.72;2.63;;;;;;;;;;10453220;28;20035;-85
2023/03/30 18:02:13;;;;;;;5.15;1.98;;;;;;;;;;10459187;28;20495;-84
2023/03/30 18:07:15;;;;;;;7.18;2.47;;;;;;;;;;10456247;28;20040;-84
2023/03/30 18:12:16;;;;;;;5.10;2.22;;;;;;;;;;10459809;28;20418;-84
2023/03/30 18:17:17;;;;;;;5.03;2.20;;;;;;;;;;10472520;28;20348;-85
2023/03/30 18:22:18;;;;;;;4.93;2.30;;;;;;;;;;10470320;28;20107;-85
2023/03/30 18:27:19;;;;;;;5.70;2.30;;;;;;;;;;10452445;28;20445;-85
2023/03/30 18:32:21;;;;;;;4.43;2.38;;;;;;;;;;10450158;28;20025;-85
2023/03/30 18:37:22;;;;;;;4.53;2.10;;;;;;;;;;10469719;28;20021;-81
2023/03/30 18:42:23;;;;;;;4.32;2.20;;;;;;;;;;10455474;28;20123;-82
2023/03/30 18:47:25;;;;;;;4.40;1.63;;;;;;;;;;10455341;28;20190;-82
2023/03/30 18:52:27;;;;;;;4.40;1.88;;;;;;;;;;10453795;28;20025;-82
2023/03/30 18:57:28;;;;;;;3.40;1.85;;;;;;;;;;10458572;28;20068;-82
2023/03/30 19:02:29;;;;;;;5.68;2.47;;;;;;;;;;10482035;28;20112;-82
2023/03/30 19:07:29;;;;;;;;;;;;;;;;;;10465735;28;20049;-82
2023/03/30 19:12:31;;;;;;;5.40;2.03;;;;;;;;;;10461638;28;20366;-82
2023/03/30 19:17:33;;;;;;;4.22;1.98;;;;;;;;;;10479413;28;20033;-82
